Islesboro, Maine
Current Conditions -  °F | °C
As of 1:55 PM on Tuesday 27 Jan 2015 (Local Time) from KRKD Reporting Station
Overcast Overcast  
Wind Chill: -2°   Ceiling: 400
Heat Index: 16°   Visibility: 0.25mi
Dew Point: 14°   Wind: 23mph
Humidity: 93%   Direction: 20°NNE
Pressure: 29.44"   Gusts: 38mph
Location:  44.31°N, 68.9°W
Report Text: KRKD 271855Z AUTO 02020G33KT 1/4SM OVC004 M09/M10 A2944 RMK AO1
Loading
Personal Weather Stations






























Interactive Weather Map New forecast layout! Learn more

10-Day Weather Forecast

Advertisements
Track Severe Weather on mobile